^^
Grace C. Lehan Memorial Weather Station Historical Data
Daily Summary for September 26, 2022 Units:  Metric    English   Both
Daily Weekly Monthly Yearly
  High: Low: Average:
Temperature: 23.2 °C 14.3 °C 18.7 °C
Dew Point: 17.7 °C 13.4 °C 15.4 °C
Humidity: 96% 58% 83%
Wind Speed: 3.7km/h 0km/h 0.3km/h
Wind Gust: 19.3km/h - -
Wind- - SW
Pressure: 1007 hPa 999.5 hPa -
Precipitation: 0 mm    
 
 
Tabular Data for September 26, 2022
Time Temperature Dew Point Pressure Wind Wind Speed Wind Gust Humidity Rainfall Rate (Hourly) solar
00:04 17.2 °C 15.7 °C 1000.9 hPa Calm     91% 2.29 mm 0 W/m2
00:09 17.2 °C 15.8 °C 1000.9 hPa Calm     91.4% 2.29 mm 0 W/m2
00:14 17.2 °C 15.8 °C 1001.2 hPa Calm     92% 2.54 mm 0 W/m2
00:19 17.1 °C 15.8 °C 1000.9 hPa Calm     92% 2.54 mm 0 W/m2
00:24 17.1 °C 15.7 °C 1000.9 hPa Calm     92% 2.54 mm 0 W/m2
00:29 17.1 °C 15.8 °C 1000.9 hPa Calm     92.5% 2.79 mm 0 W/m2
00:34 17 °C 15.9 °C 1000.6 hPa Calm     93% 2.79 mm 0 W/m2
00:39 17 °C 15.9 °C 1000.9 hPa Calm     93% 3.05 mm 0 W/m2
00:44 17 °C 15.8 °C 1000.9 hPa Calm     93% 3.05 mm 0 W/m2
00:49 16.9 °C 15.8 °C 1000.9 hPa Calm     93% 3.05 mm 0 W/m2
00:54 16.9 °C 15.8 °C 1000.9 hPa Calm     93% 3.05 mm 0 W/m2
00:59 16.9 °C 15.9 °C 1000.9 hPa Calm     93.4% 3.05 mm 0 W/m2
01:04 16.9 °C 16 °C 1000.9 hPa Calm     94% 3.05 mm 0 W/m2
01:09 16.9 °C 15.9 °C 1000.9 hPa Calm     94% 0.25 mm 0 W/m2
01:14 16.9 °C 15.9 °C 1000.9 hPa Calm     94% 0.25 mm 0 W/m2
01:19 16.8 °C 15.9 °C 1000.2 hPa Calm     94% 0.25 mm 0 W/m2
01:24 16.8 °C 15.8 °C 1000.2 hPa Calm     94% 0.25 mm 0 W/m2
01:29 16.8 °C 15.8 °C 1000.2 hPa Calm     94% 0.25 mm 0 W/m2
01:34 16.7 °C 15.8 °C 999.9 hPa Calm     94% 0.25 mm 0 W/m2
01:39 16.7 °C 15.8 °C 999.9 hPa Calm     94% 0.25 mm 0 W/m2
01:44 16.7 °C 15.7 °C 999.9 hPa Calm     94% 0.25 mm 0 W/m2
01:49 16.7 °C 15.7 °C 999.9 hPa Calm     94% 0.25 mm 0 W/m2
01:54 16.7 °C 15.7 °C 999.5 hPa Calm     94% 0.25 mm 0 W/m2
01:59 16.6 °C 15.7 °C 999.5 hPa Calm     94% 0.25 mm 0 W/m2
02:04 16.6 °C 15.7 °C 999.5 hPa Calm     94% 0.25 mm 0 W/m2
02:09 16.6 °C 15.6 °C 999.9 hPa Calm     94% 0 mm 0 W/m2
02:14 16.6 °C 15.6 °C 999.9 hPa Calm     94% 0 mm 0 W/m2
02:19 16.5 °C 15.5 °C 999.9 hPa Calm     94% 0 mm 0 W/m2
02:24 16.4 °C 15.7 °C 1000.2 hPa Calm     95% 0 mm 0 W/m2
02:29 16.4 °C 15.6 °C 1000.2 hPa Calm     95% 0 mm 0 W/m2
02:34 16.4 °C 15.6 °C 1000.2 hPa Calm     95% 0 mm 0 W/m2
02:39 16.4 °C 15.5 °C 1000.2 hPa Calm     94.7% 0 mm 0 W/m2
02:44 16.3 °C 15.4 °C 1000.2 hPa Calm     94% 0 mm 0 W/m2
02:49 16.3 °C 15.3 °C 1000.2 hPa Calm     94% 0 mm 0 W/m2
02:54 16.2 °C 15.2 °C 1000.2 hPa Calm     94% 0 mm 0 W/m2
02:59 16.2 °C 15.3 °C 1000.2 hPa Calm     94.6% 0 mm 0 W/m2
03:04 16.1 °C 15.3 °C 1000.6 hPa Calm     95% 0 mm 0 W/m2
03:09 16.1 °C 15.2 °C 1000.2 hPa Calm     95% 0 mm 0 W/m2
03:14 16.1 °C 15.2 °C 1000.6 hPa SSW 0.2 km/h 4.8 km/h 95% 0 mm 0 W/m2
03:19 16.1 °C 15.3 °C 1000.6 hPa Calm   4.8 km/h 95% 0 mm 0 W/m2
03:24 16.1 °C 15.3 °C 1000.6 hPa Calm   4.8 km/h 95% 0 mm 0 W/m2
03:29 16.1 °C 15.3 °C 1000.6 hPa Calm   4.8 km/h 95% 0 mm 0 W/m2
03:34 16.1 °C 15.3 °C 1000.6 hPa Calm   4.8 km/h 95% 0 mm 0 W/m2
03:39 16.1 °C 15.3 °C 1000.6 hPa Calm     95% 0 mm 0 W/m2
03:44 16.1 °C 15.2 °C 1000.6 hPa Calm     95% 0 mm 0 W/m2
03:49 16 °C 15.2 °C 1000.6 hPa Calm     95% 0 mm 0 W/m2
03:54 16 °C 15.2 °C 1000.2 hPa Calm     95% 0 mm 0 W/m2
03:59 15.9 °C 15.2 °C 1000.6 hPa Calm     95% 0 mm 0 W/m2
04:09 15.8 °C 15 °C 1000.6 hPa Calm     95% 0 mm 0 W/m2
04:14 15.7 °C 14.9 °C 1000.6 hPa Calm     95% 0 mm 0 W/m2
04:19 15.6 °C 14.8 °C 1000.6 hPa Calm     95% 0 mm 0 W/m2
04:24 15.6 °C 14.8 °C 1000.6 hPa Calm     95% 0 mm 0 W/m2
04:29 15.6 °C 14.8 °C 1000.6 hPa Calm     95% 0 mm 0 W/m2
04:34 15.6 °C 14.8 °C 1000.6 hPa Calm     95% 0 mm 0 W/m2
04:39 15.6 °C 14.8 °C 1000.6 hPa Calm     95% 0 mm 0 W/m2
04:44 15.6 °C 14.8 °C 1000.6 hPa Calm     95% 0 mm 0 W/m2
04:48 15.6 °C 14.8 °C 1000.6 hPa Calm     95% 0 mm 0 W/m2
05:00 15.6 °C 14.8 °C 1000.6 hPa Calm     95% 0 mm 0 W/m2
05:30 15.5 °C 14.9 °C 1000.9 hPa Calm   3.2 km/h 96% 0 mm 0 W/m2
06:00 15 °C 14.2 °C 1001.2 hPa Calm     95% 0 mm 0 W/m2
06:30 14.7 °C 13.9 °C 1001.9 hPa Calm     95% 0 mm 0 W/m2
07:00 14.3 °C 13.7 °C 1002.6 hPa Calm     96% 0.25 mm 3 W/m2
07:30 14.3 °C 13.7 °C 1002.9 hPa Calm     96% 0.25 mm 14 W/m2
08:04 14.6 °C 14 °C 1002.9 hPa Calm     96% 0.25 mm 25 W/m2
08:09 14.7 °C 14.1 °C 1002.9 hPa Calm     96% 0.25 mm 33 W/m2
08:14 14.8 °C 14.1 °C 1002.9 hPa Calm     96% 0.25 mm 33 W/m2
08:19 14.8 °C 14.2 °C 1002.9 hPa Calm     96% 0.25 mm 53 W/m2
08:24 15 °C 14.3 °C 1002.9 hPa Calm     96% 0.25 mm 60 W/m2
08:29 15.2 °C 14.5 °C 1002.9 hPa SW 0.2 km/h 4.8 km/h 96% 0.25 mm 84 W/m2
08:34 15.3 °C 14.7 °C 1003.3 hPa Calm   4.8 km/h 96% 0.25 mm 104 W/m2
08:39 15.4 °C 14.8 °C 1003.6 hPa Calm     96% 0 mm 109 W/m2
08:44 15.6 °C 14.9 °C 1003.6 hPa Calm     96% 0 mm 109 W/m2
08:49 15.7 °C 15.1 °C 1003.3 hPa Calm     96% 0 mm 90 W/m2
08:54 15.8 °C 15.1 °C 1003.3 hPa Calm     96% 0 mm 98 W/m2
08:59 15.8 °C 15.2 °C 1003.3 hPa Calm     96% 0 mm 239 W/m2
09:04 16 °C 15.3 °C 1003.3 hPa WSW 0.5 km/h 8 km/h 96% 0 mm 406 W/m2
09:09 16.3 °C 15.7 °C 1003.3 hPa WSW 0.3 km/h 8 km/h 96% 0 mm 425 W/m2
09:14 16.7 °C 16.1 °C 1003.3 hPa West 0.2 km/h 8 km/h 96% 0 mm 446 W/m2
09:19 17 °C 16.3 °C 1003.3 hPa West 0.2 km/h 8 km/h 96% 0 mm 466 W/m2
09:24 17.6 °C 16.9 °C 1003.6 hPa Calm   8 km/h 96% 0 mm 480 W/m2
09:29 18.1 °C 17.4 °C 1003.6 hPa West 0.6 km/h 8 km/h 95.4% 0 mm 499 W/m2
09:34 18.6 °C 17.4 °C 1003.6 hPa Calm   8 km/h 93% 0 mm 527 W/m2
09:39 19.1 °C 17.5 °C 1003.6 hPa West 0.2 km/h 3.2 km/h 90.4% 0 mm 577 W/m2
09:44 19.7 °C 17.7 °C 1003.6 hPa West 0.2 km/h 6.4 km/h 88.3% 0 mm 577 W/m2
09:49 20.1 °C 17.4 °C 1003.9 hPa West 0.3 km/h 6.4 km/h 84.9% 0 mm 585 W/m2
09:54 20.3 °C 17.1 °C 1003.6 hPa Calm   6.4 km/h 81.7% 0 mm 589 W/m2
09:59 20.4 °C 16.9 °C 1003.6 hPa WSW 1.4 km/h 19.3 km/h 80.2% 0 mm 582 W/m2
10:04 20.7 °C 16.9 °C 1003.6 hPa WSW 0.3 km/h 19.3 km/h 78.9% 0 mm 589 W/m2
10:09 20.9 °C 16.9 °C 1003.6 hPa West 0.6 km/h 11.3 km/h 77.8% 0 mm 598 W/m2
10:14 21.2 °C 17.2 °C 1003.9 hPa WSW 0.6 km/h 11.3 km/h 77.7% 0 mm 613 W/m2
10:19 21.6 °C 17.4 °C 1003.9 hPa West 0.2 km/h 11.3 km/h 77.1% 0 mm 636 W/m2
10:24 21.9 °C 17.4 °C 1003.6 hPa West 0.8 km/h 11.3 km/h 75.7% 0 mm 640 W/m2
10:29 22.1 °C 17.3 °C 1003.6 hPa West 0.3 km/h 11.3 km/h 74.2% 0 mm 640 W/m2
10:34 22.3 °C 17.3 °C 1003.6 hPa Calm   11.3 km/h 73.1% 0 mm 652 W/m2
10:39 22.4 °C 17.1 °C 1003.6 hPa Calm   1.6 km/h 72% 0 mm 677 W/m2
10:44 22.4 °C 16.9 °C 1003.6 hPa Calm   3.2 km/h 71% 0 mm 696 W/m2
10:49 22.6 °C 17.2 °C 1003.6 hPa Calm   3.2 km/h 71.8% 0 mm 714 W/m2
10:54 22.6 °C 16.9 °C 1003.6 hPa WSW 0.2 km/h 4.8 km/h 70.4% 0 mm 729 W/m2
10:59 22.7 °C 17.1 °C 1003.6 hPa Calm   4.8 km/h 70.7% 0 mm 744 W/m2
11:04 23 °C 17.2 °C 1003.9 hPa WSW 0.2 km/h 6.4 km/h 69.9% 0 mm 752 W/m2
11:09 23.1 °C 16.8 °C 1003.6 hPa WSW 0.5 km/h 9.7 km/h 67.8% 0 mm 737 W/m2
11:14 23.1 °C 17.1 °C 1003.6 hPa Calm   9.7 km/h 69% 0 mm 751 W/m2
11:19 23.2 °C 16.8 °C 1003.6 hPa WSW 0.2 km/h 9.7 km/h 67.5% 0 mm 751 W/m2
11:24 23.1 °C 16.5 °C 1003.6 hPa WSW 0.2 km/h 9.7 km/h 66.6% 0 mm 770 W/m2
11:29 23 °C 17.2 °C 1003.6 hPa Calm   9.7 km/h 69.6% 0 mm 770 W/m2
11:34 22.9 °C 16.5 °C 1003.6 hPa WSW 0.5 km/h 9.7 km/h 66.9% 0 mm 642 W/m2
11:39 22.9 °C 16.4 °C 1003.6 hPa WSW 0.2 km/h 9.7 km/h 67% 0 mm 617 W/m2
11:44 22.8 °C 16.4 °C 1003.6 hPa West 0.5 km/h 9.7 km/h 67.4% 0 mm 155 W/m2
11:49 22.7 °C 16.3 °C 1003.6 hPa WSW 0.6 km/h 9.7 km/h 67.6% 0 mm 188 W/m2
11:54 22.6 °C 16.6 °C 1003.6 hPa WSW 0.3 km/h 9.7 km/h 69% 0 mm 195 W/m2
11:59 22.6 °C 16.7 °C 1003.6 hPa WSW 1 km/h 16.1 km/h 69.1% 0 mm 213 W/m2
12:04 22.6 °C 16.1 °C 1003.6 hPa Calm     67% 0 mm 109 W/m2
12:09 22.6 °C 16.1 °C 1003.6 hPa WSW 0.3 km/h 6.4 km/h 66.8% 0 mm 109 W/m2
12:14 22.4 °C 16.1 °C 1003.6 hPa WSW 1.1 km/h 11.3 km/h 67.1% 0 mm 144 W/m2
12:19 22.4 °C 15.9 °C 1003.6 hPa WSW 1.8 km/h 11.3 km/h 66.7% 0 mm 396 W/m2
12:24 22.3 °C 15.6 °C 1003.6 hPa SW 1.1 km/h 11.3 km/h 65.5% 0 mm 396 W/m2
12:29 22.3 °C 15.7 °C 1003.6 hPa WSW 1.8 km/h 11.3 km/h 66% 0 mm 420 W/m2
12:34 22.3 °C 15.6 °C 1003.6 hPa WSW 1.3 km/h 11.3 km/h 65.3% 0 mm 420 W/m2
12:39 22.4 °C 15.5 °C 1003.6 hPa Calm   8 km/h 65% 0 mm 156 W/m2
12:44 22.4 °C 15.8 °C 1003.6 hPa WSW 0.2 km/h 8 km/h 66% 0 mm 214 W/m2
12:49 22.4 °C 15.7 °C 1003.6 hPa SSE 0.2 km/h 8 km/h 66.2% 0 mm 179 W/m2
12:54 22.3 °C 15.4 °C 1003.6 hPa SW 1.1 km/h 8 km/h 65.2% 0 mm 151 W/m2
12:59 22.3 °C 15.6 °C 1003.6 hPa West 0.2 km/h 8 km/h 65.8% 0 mm 292 W/m2
13:04 22.4 °C 16 °C 1003.6 hPa West 0.3 km/h 8 km/h 67.1% 0 mm 292 W/m2
13:09 22.4 °C 15.8 °C 1003.6 hPa WSW 1.3 km/h 11.3 km/h 66.2% 0 mm 244 W/m2
13:14 22.4 °C 15.6 °C 1003.6 hPa WSW 0.3 km/h 11.3 km/h 65.3% 0 mm 346 W/m2
13:19 22.4 °C 16.1 °C 1003.6 hPa WSW 0.5 km/h 11.3 km/h 67.1% 0 mm 320 W/m2
13:24 22.5 °C 15.5 °C 1003.6 hPa WSW 0.3 km/h 11.3 km/h 64.6% 0 mm 304 W/m2
13:29 22.5 °C 15.4 °C 1003.6 hPa WSW 0.6 km/h 11.3 km/h 64.5% 0 mm 241 W/m2
13:34 22.4 °C 15.6 °C 1003.6 hPa WSW 0.6 km/h 11.3 km/h 65.4% 0 mm 179 W/m2
13:39 22.3 °C 15.5 °C 1003.3 hPa Calm   4.8 km/h 65.4% 0 mm 309 W/m2
13:44 22.3 °C 15.7 °C 1003.3 hPa SW 0.2 km/h 4.8 km/h 66.4% 0 mm 309 W/m2
13:49 22.3 °C 15.9 °C 1003.3 hPa SW 1 km/h 9.7 km/h 67% 0 mm 120 W/m2
13:54 22.5 °C 16 °C 1003.3 hPa WSW 1.3 km/h 14.5 km/h 66.6% 0 mm 169 W/m2
13:59 22.7 °C 15.7 °C 1003.3 hPa West 0.3 km/h 14.5 km/h 64.8% 0 mm 149 W/m2
14:04 22.7 °C 15.6 °C 1003.3 hPa West 0.2 km/h 14.5 km/h 64.2% 0 mm 209 W/m2
14:09 22.7 °C 15.7 °C 1003.3 hPa SSW 1.1 km/h 6.4 km/h 64.7% 0 mm 190 W/m2
14:14 22.7 °C 15.3 °C 1003.3 hPa SW 1.1 km/h 11.3 km/h 62.9% 0 mm 171 W/m2
14:19 22.7 °C 15.5 °C 1002.9 hPa WSW 0.6 km/h 11.3 km/h 63.8% 0 mm 220 W/m2
14:24 22.6 °C 15.4 °C 1003.3 hPa WSW 1 km/h 11.3 km/h 63.9% 0 mm 165 W/m2
14:29 22.6 °C 15.3 °C 1002.9 hPa SW 0.6 km/h 11.3 km/h 63.8% 0 mm 153 W/m2
14:34 22.6 °C 15.4 °C 1003.3 hPa WSW 1.8 km/h 17.7 km/h 63.7% 0 mm 202 W/m2
14:39 22.8 °C 15.6 °C 1002.9 hPa SW 0.2 km/h 17.7 km/h 63.7% 0 mm 374 W/m2
14:44 22.9 °C 15.1 °C 1002.9 hPa South 0.6 km/h 17.7 km/h 61.4% 0 mm 374 W/m2
14:49 23.1 °C 15.1 °C 1002.9 hPa SSW 0.3 km/h 17.7 km/h 60.6% 0 mm 204 W/m2
14:54 23.2 °C 14.8 °C 1002.9 hPa SSW 1.9 km/h 17.7 km/h 59.4% 0 mm 60 W/m2
14:59 23.1 °C 14.5 °C 1002.9 hPa SW 3.7 km/h 17.7 km/h 58.5% 0 mm 76 W/m2
15:04 23 °C 14.6 °C 1002.9 hPa West 0.6 km/h 17.7 km/h 59% 0 mm 76 W/m2
15:09 22.9 °C 14.7 °C 1002.9 hPa SW 1.9 km/h 11.3 km/h 59.8% 0 mm 88 W/m2
15:14 22.9 °C 14.6 °C 1002.9 hPa WSW 1 km/h 11.3 km/h 59.4% 0 mm 88 W/m2
15:15 22.9 °C 14.5 °C 1002.9 hPa SSW 1.6 km/h 11.3 km/h 59% 0 mm 63 W/m2
15:30 23.1 °C 14.3 °C 1002.6 hPa SW 1.6 km/h 16.1 km/h 58% 0 mm 131 W/m2
16:04 22.7 °C 14.8 °C 1002.6 hPa SSW 0.5 km/h 3.2 km/h 61.3% 0 mm 70 W/m2
16:09 22.7 °C 14.8 °C 1002.6 hPa SSW 0.3 km/h 3.2 km/h 61.1% 0 mm 74 W/m2
16:14 22.7 °C 14.9 °C 1002.6 hPa SSW 0.2 km/h 3.2 km/h 61.3% 0 mm 69 W/m2
16:19 22.6 °C 14.9 °C 1002.6 hPa SW 0.8 km/h 8 km/h 61.7% 0 mm 120 W/m2
16:24 22.5 °C 14.6 °C 1002.6 hPa ENE 0.3 km/h 8 km/h 60.8% 0 mm 111 W/m2
16:29 22.4 °C 14.5 °C 1002.6 hPa ESE 0.3 km/h 8 km/h 60.9% 0 mm 116 W/m2
16:34 22.3 °C 14.2 °C 1002.6 hPa South 0.6 km/h 8 km/h 60.3% 0 mm 113 W/m2
16:39 22.2 °C 14 °C 1002.6 hPa SSW 0.6 km/h 4.8 km/h 59.7% 0 mm 91 W/m2
16:44 22.1 °C 13.9 °C 1002.6 hPa SW 0.8 km/h 8 km/h 59.7% 0 mm 79 W/m2
16:49 22 °C 14.1 °C 1002.9 hPa SW 0.5 km/h 8 km/h 60.7% 0 mm 100 W/m2
16:54 21.9 °C 14.1 °C 1002.9 hPa SW 0.3 km/h 8 km/h 61% 0 mm 111 W/m2
16:59 21.9 °C 14.3 °C 1002.9 hPa SSW 0.8 km/h 14.5 km/h 61.8% 0 mm 98 W/m2
17:04 21.9 °C 14.4 °C 1003.3 hPa SSW 0.8 km/h 14.5 km/h 62.1% 0 mm 49 W/m2
17:09 21.9 °C 14.7 °C 1003.3 hPa SW 1 km/h 9.7 km/h 63.6% 0 mm 40 W/m2
17:14 21.7 °C 14.8 °C 1003.3 hPa SW 0.5 km/h 9.7 km/h 64.7% 0 mm 56 W/m2
17:19 21.6 °C 15.1 °C 1003.6 hPa SSW 1.3 km/h 12.9 km/h 66.4% 0 mm 54 W/m2
17:24 21.4 °C 15.1 °C 1003.6 hPa SW 1 km/h 12.9 km/h 66.9% 0 mm 47 W/m2
17:29 21.4 °C 15.2 °C 1003.6 hPa West 0.2 km/h 12.9 km/h 67.7% 0 mm 39 W/m2
17:34 21.3 °C 15.3 °C 1003.6 hPa SW 0.2 km/h 12.9 km/h 68.5% 0 mm 25 W/m2
17:39 21.2 °C 15.3 °C 1003.6 hPa SSW 2.3 km/h 9.7 km/h 69% 0 mm 23 W/m2
17:44 21.1 °C 15.2 °C 1003.6 hPa SSW 0.2 km/h 9.7 km/h 69% 0 mm 14 W/m2
17:49 21 °C 15.2 °C 1003.6 hPa South 0.2 km/h 9.7 km/h 69.2% 0 mm 11 W/m2
17:54 20.9 °C 15.2 °C 1003.6 hPa Calm   9.7 km/h 70% 0 mm 12 W/m2
17:59 20.8 °C 15.3 °C 1003.6 hPa WSW 0.3 km/h 9.7 km/h 70.8% 0 mm 12 W/m2
18:04 20.8 °C 15.7 °C 1003.6 hPa WSW 0.2 km/h 9.7 km/h 72.5% 0 mm 9 W/m2
18:09 20.7 °C 15.9 °C 1003.9 hPa WSW 0.3 km/h 6.4 km/h 74% 0.25 mm 7 W/m2
18:14 20.6 °C 16.3 °C 1003.9 hPa WNW 1.4 km/h 14.5 km/h 76.4% 0.25 mm 14 W/m2
18:19 20.3 °C 16.4 °C 1004.3 hPa West 1.6 km/h 14.5 km/h 78.6% 4.06 mm 58 W/m2
18:24 19.9 °C 16.4 °C 1004.3 hPa West 1.8 km/h 16.1 km/h 80.7% 5.08 mm 76 W/m2
18:29 19.3 °C 16.2 °C 1004.3 hPa WSW 0.6 km/h 16.1 km/h 82.2% 5.84 mm 76 W/m2
18:34 18.8 °C 16.1 °C 1004.3 hPa West 1.1 km/h 16.1 km/h 84.3% 5.84 mm 40 W/m2
18:39 18.3 °C 15.9 °C 1004.3 hPa Calm   14.5 km/h 85.7% 5.84 mm 14 W/m2
18:44 18.1 °C 15.8 °C 1004.6 hPa Calm   14.5 km/h 86.7% 5.84 mm 5 W/m2
18:49 17.9 °C 15.8 °C 1004.6 hPa Calm   14.5 km/h 87.8% 5.84 mm 0 W/m2
18:54 17.7 °C 15.7 °C 1004.6 hPa Calm   14.5 km/h 88.3% 5.84 mm 0 W/m2
18:59 17.6 °C 15.6 °C 1004.6 hPa Calm   14.5 km/h 88.5% 5.84 mm 0 W/m2
19:04 17.4 °C 15.6 °C 1004.6 hPa Calm   14.5 km/h 89% 5.84 mm 0 W/m2
19:09 17.2 °C 15.5 °C 1004.6 hPa Calm     89.5% 5.84 mm 0 W/m2
19:14 17.1 °C 15.5 °C 1004.6 hPa Calm   1.6 km/h 90% 5.84 mm 0 W/m2
19:19 17 °C 15.4 °C 1004.6 hPa Calm   1.6 km/h 90.4% 5.84 mm 0 W/m2
19:24 16.9 °C 15.4 °C 1005 hPa Calm   1.6 km/h 91% 5.84 mm 0 W/m2
19:29 16.8 °C 15.3 °C 1005 hPa Calm   1.6 km/h 91% 5.84 mm 0 W/m2
19:34 16.8 °C 15.3 °C 1005 hPa Calm   1.6 km/h 91% 5.84 mm 0 W/m2
19:39 16.7 °C 15.3 °C 1005 hPa Calm     91.6% 0 mm 0 W/m2
19:44 16.7 °C 15.4 °C 1005.3 hPa Calm     92% 0 mm 0 W/m2
19:49 16.8 °C 15.6 °C 1005.3 hPa Calm     92.5% 0 mm 0 W/m2
19:54 16.8 °C 15.7 °C 1005.3 hPa Calm     93% 0 mm 0 W/m2
19:59 16.8 °C 15.7 °C 1005.3 hPa Calm     93% 0 mm 0 W/m2
20:04 16.7 °C 15.6 °C 1005.3 hPa Calm     93% 0 mm 0 W/m2
20:09 16.7 °C 15.6 °C 1005.6 hPa Calm     93% 0 mm 0 W/m2
20:14 16.7 °C 15.5 °C 1005.6 hPa Calm     93% 0 mm 0 W/m2
20:19 16.6 °C 15.4 °C 1005.6 hPa Calm     93% 0 mm 0 W/m2
20:24 16.6 °C 15.4 °C 1005.6 hPa Calm     93% 0 mm 0 W/m2
20:29 16.4 °C 15.3 °C 1005.6 hPa Calm     93% 0 mm 0 W/m2
20:34 16.4 °C 15.3 °C 1006 hPa Calm     93% 0 mm 0 W/m2
20:39 16.3 °C 15.2 °C 1006 hPa Calm     93% 0 mm 0 W/m2
20:44 16.3 °C 15.1 °C 1006 hPa Calm     93% 0 mm 0 W/m2
20:49 16.2 °C 15.1 °C 1006 hPa Calm     93% 0 mm 0 W/m2
20:54 16.1 °C 14.9 °C 1006 hPa Calm     93% 0 mm 0 W/m2
20:59 16 °C 14.8 °C 1006.3 hPa Calm     93% 0 mm 0 W/m2
21:04 15.9 °C 14.8 °C 1006.3 hPa Calm     93% 0 mm 0 W/m2
21:09 15.8 °C 14.7 °C 1006.3 hPa Calm     93% 0 mm 0 W/m2
21:14 15.8 °C 14.6 °C 1006.3 hPa Calm     93% 0 mm 0 W/m2
21:19 15.7 °C 14.6 °C 1006.3 hPa Calm     93% 0 mm 0 W/m2
21:24 15.6 °C 14.4 °C 1006.3 hPa Calm     93% 0 mm 0 W/m2
21:29 15.5 °C 14.5 °C 1006.3 hPa Calm     93.7% 0 mm 0 W/m2
21:34 15.4 °C 14.3 °C 1006.7 hPa Calm     93% 0 mm 0 W/m2
21:39 15.4 °C 14.4 °C 1006.7 hPa Calm     94% 0 mm 0 W/m2
21:44 15.3 °C 14.3 °C 1006.7 hPa Calm     94% 0 mm 0 W/m2
21:49 15.3 °C 14.3 °C 1006.7 hPa Calm     94% 0 mm 0 W/m2
21:54 15.3 °C 14.3 °C 1006.7 hPa Calm     94% 0 mm 0 W/m2
21:59 15.3 °C 14.3 °C 1006.7 hPa Calm     94% 0 mm 0 W/m2
22:04 15.3 °C 14.3 °C 1006.7 hPa Calm     94% 0 mm 0 W/m2
22:09 15.3 °C 14.3 °C 1007 hPa Calm     94% 0 mm 0 W/m2
22:14 15.2 °C 14.3 °C 1007 hPa Calm     94% 0 mm 0 W/m2
22:19 15.2 °C 14.2 °C 1007 hPa Calm     94% 0 mm 0 W/m2
22:24 15.2 °C 14.2 °C 1007 hPa Calm     94% 0 mm 0 W/m2
22:29 15.1 °C 14.2 °C 1007 hPa Calm     94% 0 mm 0 W/m2
22:34 15.1 °C 14.1 °C 1007 hPa Calm     94% 0 mm 0 W/m2
22:39 15.1 °C 14.1 °C 1007 hPa Calm     94% 0 mm 0 W/m2
22:44 15 °C 14.1 °C 1007 hPa Calm     94% 0 mm 0 W/m2
22:47 14.9 °C 14 °C 1007 hPa Calm     94% 0 mm 0 W/m2
23:00 14.9 °C 14.2 °C 1007 hPa Calm     95% 0 mm 0 W/m2
23:30 14.4 °C 13.4 °C 1007 hPa Calm     94% 0 mm 0 W/m2
Hartford County Weather
Compliments of Weather Underground - 4 mb